Time;durP1;ratioP1;P1;durP2;ratioP2;P2;SDS_P1;SDS_P2;PMS_P1;PMS_P2;Temp;Humidity;BMP_temperature;BMP_pressure;BME280_temperature;BME280_humidity;BME280_pressure;Samples;Min_cycle;Max_cycle;Signal;HPM_P1;HPM_P2
2021/11/06 00:00:18;;;;;;;12.60;8.43;;;8.90;99.90;;;;;;4995362;28;20548;-49
2021/11/06 00:02:45;;;;;;;11.77;7.93;;;9.10;99.90;;;;;;4995302;28;20852;-49
2021/11/06 00:05:13;;;;;;;8.70;7.07;;;8.60;99.90;;;;;;4995155;28;20491;-49
2021/11/06 00:07:40;;;;;;;17.60;8.43;;;9.10;99.90;;;;;;4995195;28;20432;-48
2021/11/06 00:10:08;;;;;;;13.47;8.50;;;9.20;99.90;;;;;;4993640;28;20447;-49
2021/11/06 00:12:35;;;;;;;14.30;8.33;;;9.30;99.90;;;;;;4995138;28;20437;-49
2021/11/06 00:15:03;;;;;;;11.17;7.40;;;9.10;99.90;;;;;;4995212;28;20448;-49
2021/11/06 00:17:29;;;;;;;13.63;8.43;;;8.80;99.90;;;;;;4994931;28;20444;-49
2021/11/06 00:19:56;;;;;;;11.17;7.80;;;9.10;99.90;;;;;;4994700;28;20488;-49
2021/11/06 00:22:24;;;;;;;11.87;8.00;;;9.00;99.90;;;;;;4995083;28;20411;-49
2021/11/06 00:24:51;;;;;;;15.80;8.40;;;9.20;99.90;;;;;;4994812;28;20445;-50
2021/11/06 00:27:17;;;;;;;14.40;8.30;;;8.90;99.90;;;;;;4995098;28;20441;-49
2021/11/06 00:29:44;;;;;;;10.20;7.40;;;9.30;99.90;;;;;;5020746;22;20465;-48
2021/11/06 00:32:11;;;;;;;12.17;8.47;;;9.00;99.90;;;;;;5071816;28;20763;-49
2021/11/06 00:34:38;;;;;;;16.43;8.97;;;9.10;99.90;;;;;;5073775;28;20782;-48
2021/11/06 00:37:05;;;;;;;15.53;7.40;;;9.30;99.90;;;;;;5073697;28;20438;-48
2021/11/06 00:39:33;;;;;;;9.70;7.10;;;9.30;99.90;;;;;;5073231;28;20720;-48
2021/11/06 00:42:00;;;;;;;11.40;6.80;;;9.10;99.90;;;;;;5073530;28;20798;-48
2021/11/06 00:44:28;;;;;;;11.00;7.47;;;9.40;99.90;;;;;;5073224;28;20404;-47
2021/11/06 00:46:54;;;;;;;10.30;7.83;;;9.80;99.90;;;;;;5073305;28;20433;-49
2021/11/06 00:49:21;;;;;;;12.70;8.80;;;9.70;99.90;;;;;;5072639;28;20429;-50
2021/11/06 00:51:48;;;;;;;12.73;7.57;;;9.40;99.90;;;;;;5073560;28;20425;-49
2021/11/06 00:54:15;;;;;;;11.63;7.07;;;8.90;99.90;;;;;;5072505;28;20424;-48
2021/11/06 00:56:43;;;;;;;13.37;7.37;;;9.30;99.90;;;;;;5073392;28;20412;-49
2021/11/06 00:59:09;;;;;;;12.97;6.83;;;9.00;99.90;;;;;;5072995;28;20956;-49
2021/11/06 01:01:36;;;;;;;14.70;7.83;;;9.00;99.90;;;;;;5072663;28;20492;-49
2021/11/06 01:04:04;;;;;;;12.77;7.60;;;9.40;99.90;;;;;;5072964;28;20445;-48
2021/11/06 01:06:30;;;;;;;11.33;6.43;;;9.40;99.90;;;;;;5072926;28;20511;-50
2021/11/06 01:08:57;;;;;;;12.83;7.10;;;9.20;99.90;;;;;;5072653;28;20768;-48
2021/11/06 01:11:24;;;;;;;14.87;7.97;;;9.30;99.90;;;;;;5072869;28;20924;-49
2021/11/06 01:13:53;;;;;;;12.03;7.93;;;9.30;99.90;;;;;;5073152;28;20468;-48
2021/11/06 01:16:19;;;;;;;12.87;8.40;;;9.20;99.90;;;;;;5072543;28;20430;-49
2021/11/06 01:18:46;;;;;;;10.10;7.83;;;9.50;99.90;;;;;;5072535;28;20517;-49
2021/11/06 01:21:13;;;;;;;14.67;7.93;;;9.70;99.90;;;;;;5072624;28;21035;-48
2021/11/06 01:23:39;;;;;;;12.17;6.97;;;9.70;99.90;;;;;;5072719;28;20416;-48
2021/11/06 01:26:06;;;;;;;11.97;6.67;;;9.70;99.90;;;;;;5072680;28;20433;-49
2021/11/06 01:28:33;;;;;;;11.30;7.63;;;9.90;99.90;;;;;;5072221;28;20788;-49
2021/11/06 01:31:01;;;;;;;16.20;7.20;;;9.70;99.90;;;;;;5071899;28;20472;-48
2021/11/06 01:33:27;;;;;;;10.70;7.30;;;9.70;99.90;;;;;;5072578;28;20488;-48
2021/11/06 01:35:54;;;;;;;15.57;8.20;;;9.90;99.90;;;;;;5054546;28;20566;-49
2021/11/06 01:38:21;;;;;;;12.93;7.53;;;9.40;99.90;;;;;;5054180;28;20442;-49
2021/11/06 01:40:47;;;;;;;10.43;7.03;;;9.70;99.90;;;;;;5072412;28;20477;-48
2021/11/06 01:43:14;;;;;;;14.53;7.00;;;9.80;99.90;;;;;;5072529;28;20426;-48
2021/11/06 01:45:41;;;;;;;11.20;7.20;;;9.60;99.90;;;;;;5072701;28;20487;-49
2021/11/06 01:48:09;;;;;;;13.50;7.80;;;9.90;99.90;;;;;;5053558;28;20445;-49
2021/11/06 01:50:37;;;;;;;24.37;8.60;;;10.20;99.90;;;;;;5072441;28;20442;-49
2021/11/06 01:53:03;;;;;;;12.13;8.67;;;9.80;99.90;;;;;;5072325;28;20415;-49
2021/11/06 01:55:30;;;;;;;14.97;7.33;;;9.80;99.90;;;;;;5072267;28;20430;-48
2021/11/06 01:57:57;;;;;;;14.23;8.57;;;9.90;99.90;;;;;;5071960;28;20444;-49
2021/11/06 02:00:26;;;;;;;9.13;6.60;;;10.00;99.90;;;;;;5071726;28;20822;-48
2021/11/06 02:02:53;;;;;;;15.20;7.47;;;9.80;99.90;;;;;;5072143;28;20473;-49
2021/11/06 02:05:21;;;;;;;18.00;8.10;;;9.80;99.90;;;;;;5071879;28;20404;-48
2021/11/06 02:07:48;;;;;;;16.60;8.30;;;9.90;99.90;;;;;;5071777;28;20461;-49
2021/11/06 02:10:15;;;;;;;12.90;7.60;;;10.00;99.90;;;;;;5072146;28;20812;-49
2021/11/06 02:12:43;;;;;;;11.07;7.57;;;9.70;99.90;;;;;;5072008;28;20434;-49
2021/11/06 02:15:11;;;;;;;9.83;7.17;;;10.10;99.90;;;;;;5053894;28;20445;-49
2021/11/06 02:17:38;;;;;;;9.80;7.57;;;10.00;99.90;;;;;;5071583;28;20429;-50
2021/11/06 02:20:06;;;;;;;19.70;7.57;;;10.00;99.90;;;;;;5071461;28;21012;-48
2021/11/06 02:22:34;;;;;;;16.93;9.00;;;10.00;99.90;;;;;;5071490;28;20937;-49
2021/11/06 02:25:02;;;;;;;12.00;7.83;;;10.20;99.90;;;;;;5071860;28;20438;-48
2021/11/06 02:27:29;;;;;;;13.37;6.57;;;10.10;99.90;;;;;;5071731;28;20436;-49
2021/11/06 02:29:56;;;;;;;9.07;7.03;;;9.90;99.90;;;;;;5071216;28;20442;-49
2021/11/06 02:32:23;;;;;;;11.67;8.03;;;10.00;99.90;;;;;;5070584;28;20434;-48
2021/11/06 02:34:50;;;;;;;13.90;7.17;;;10.30;99.90;;;;;;5071444;28;20433;-49
2021/11/06 02:37:18;;;;;;;14.60;8.93;;;9.70;99.90;;;;;;5071618;28;20401;-49
2021/11/06 02:39:46;;;;;;;15.93;8.13;;;10.30;99.90;;;;;;5071215;28;20437;-49
2021/11/06 02:42:13;;;;;;;10.47;7.50;;;10.20;99.90;;;;;;5071437;28;20447;-48
2021/11/06 02:44:40;;;;;;;13.93;8.00;;;9.90;99.90;;;;;;5071426;28;20429;-49
2021/11/06 02:47:07;;;;;;;18.10;7.43;;;10.10;99.90;;;;;;5071450;28;20786;-49
2021/11/06 02:49:34;;;;;;;10.67;7.73;;;10.40;99.90;;;;;;5071106;28;20408;-49
2021/11/06 02:52:01;;;;;;;12.37;8.00;;;10.10;99.90;;;;;;5071466;28;20456;-49
2021/11/06 02:54:28;;;;;;;16.83;8.60;;;9.80;99.90;;;;;;5071613;28;20429;-49
2021/11/06 02:56:56;;;;;;;14.10;9.57;;;9.60;99.90;;;;;;5071643;28;20408;-49
2021/11/06 02:59:23;;;;;;;19.53;9.33;;;10.00;99.90;;;;;;5071172;28;20772;-49
2021/11/06 03:01:50;;;;;;;14.70;8.07;;;10.10;99.90;;;;;;5070735;28;20462;-49
2021/11/06 03:04:17;;;;;;;18.23;9.00;;;10.00;99.90;;;;;;5071278;28;20426;-49
2021/11/06 03:06:44;;;;;;;11.40;7.90;;;10.30;99.90;;;;;;5071552;28;20422;-49
2021/11/06 03:09:12;;;;;;;13.53;7.40;;;10.30;99.90;;;;;;5071003;28;20429;-49
2021/11/06 03:11:40;;;;;;;12.73;8.10;;;10.20;99.90;;;;;;5071191;28;20462;-48
2021/11/06 03:14:10;;;;;;;15.23;7.70;;;9.80;99.90;;;;;;5071269;28;20495;-50
2021/11/06 03:16:37;;;;;;;15.13;7.87;;;10.50;99.90;;;;;;5073032;28;20807;-49
2021/11/06 03:19:04;;;;;;;14.13;8.27;;;10.10;99.90;;;;;;5074474;28;20430;-48
2021/11/06 03:21:31;;;;;;;15.03;8.53;;;10.40;99.90;;;;;;5074971;28;20456;-49
2021/11/06 03:23:58;;;;;;;17.37;9.07;;;10.60;99.90;;;;;;5075150;28;20930;-49
2021/11/06 03:26:24;;;;;;;18.17;10.03;;;10.60;99.90;;;;;;5075154;28;20416;-49
2021/11/06 03:28:51;;;;;;;14.97;9.50;;;10.60;99.90;;;;;;5074666;28;20500;-49
2021/11/06 03:31:19;;;;;;;17.33;9.23;;;10.30;99.90;;;;;;5074248;28;20469;-49
2021/11/06 03:33:46;;;;;;;12.70;8.40;;;10.20;99.90;;;;;;5074862;28;20942;-49
2021/11/06 03:36:13;;;;;;;13.90;8.43;;;10.50;99.90;;;;;;5074910;28;20503;-49
2021/11/06 03:38:39;;;;;;;12.57;8.70;;;9.90;99.90;;;;;;5074607;28;20920;-49
2021/11/06 03:41:06;;;;;;;13.30;8.53;;;10.60;99.90;;;;;;5074863;28;20478;-49
2021/11/06 03:43:32;;;;;;;12.60;9.17;;;10.40;99.90;;;;;;5074725;28;20449;-49
2021/11/06 03:46:00;;;;;;;13.43;8.40;;;10.40;99.90;;;;;;5074359;28;20448;-50
2021/11/06 03:48:28;;;;;;;14.30;8.27;;;10.20;99.90;;;;;;5074180;28;20429;-49
2021/11/06 03:50:55;;;;;;;14.10;9.27;;;10.30;99.90;;;;;;5074480;28;20457;-49
2021/11/06 03:53:22;;;;;;;17.07;8.70;;;10.60;99.90;;;;;;5074626;28;20402;-49
2021/11/06 03:55:49;;;;;;;18.00;7.83;;;10.30;99.90;;;;;;5074589;28;20434;-50
2021/11/06 03:58:15;;;;;;;19.90;8.50;;;9.70;99.90;;;;;;5074048;28;20434;-51
2021/11/06 04:00:42;;;;;;;17.00;8.90;;;10.30;99.90;;;;;;5074360;28;20435;-49
2021/11/06 04:03:08;;;;;;;13.20;8.03;;;10.40;99.90;;;;;;5074505;28;20505;-49
2021/11/06 04:05:37;;;;;;;12.63;7.13;;;10.30;99.90;;;;;;5074324;28;20449;-49
2021/11/06 04:08:03;;;;;;;12.57;7.30;;;10.00;99.90;;;;;;5073843;28;20433;-49
2021/11/06 04:10:30;;;;;;;11.50;7.57;;;10.20;99.90;;;;;;5074218;28;20954;-50
2021/11/06 04:12:57;;;;;;;15.27;8.13;;;10.10;99.90;;;;;;5074020;28;20437;-49
2021/11/06 04:15:23;;;;;;;15.40;7.60;;;10.30;99.90;;;;;;5074263;28;20937;-49
2021/11/06 04:17:51;;;;;;;16.03;8.27;;;10.20;99.90;;;;;;5073900;28;20437;-49
2021/11/06 04:20:17;;;;;;;14.33;7.27;;;9.80;99.90;;;;;;5074027;28;20519;-49
2021/11/06 04:22:45;;;;;;;13.33;7.03;;;10.50;99.90;;;;;;5056097;28;20473;-49
2021/11/06 04:25:12;;;;;;;13.17;7.63;;;10.20;99.90;;;;;;5073902;28;20430;-50
2021/11/06 04:27:39;;;;;;;13.20;7.80;;;10.30;99.90;;;;;;5072406;28;20427;-50
2021/11/06 04:30:06;;;;;;;13.10;7.13;;;10.20;99.90;;;;;;5055710;28;20817;-49
2021/11/06 04:32:33;;;;;;;14.00;7.93;;;10.20;99.90;;;;;;5073725;28;20933;-49
2021/11/06 04:35:00;;;;;;;13.00;7.00;;;9.70;99.90;;;;;;5074088;28;20433;-48
2021/11/06 04:37:26;;;;;;;14.30;7.30;;;10.60;99.90;;;;;;5073762;28;20409;-50
2021/11/06 04:39:54;;;;;;;13.50;6.37;;;10.40;99.90;;;;;;5073175;28;20441;-49
2021/11/06 04:42:21;;;;;;;14.47;7.23;;;10.10;99.90;;;;;;5073658;28;20841;-49
2021/11/06 04:44:48;;;;;;;13.33;8.00;;;10.30;99.90;;;;;;5073531;28;20444;-49
2021/11/06 04:47:14;;;;;;;13.23;7.30;;;10.60;99.90;;;;;;5073390;28;20439;-49
2021/11/06 04:49:41;;;;;;;14.13;7.07;;;10.80;99.90;;;;;;5073160;28;20486;-50
2021/11/06 04:52:08;;;;;;;13.83;6.87;;;10.20;99.90;;;;;;5073604;28;20461;-49
2021/11/06 04:54:34;;;;;;;11.50;6.20;;;10.70;99.90;;;;;;5073467;28;20426;-49
2021/11/06 04:57:02;;;;;;;12.50;5.80;;;9.90;99.90;;;;;;5073379;28;20414;-50
2021/11/06 04:59:29;;;;;;;12.80;6.07;;;10.20;99.90;;;;;;5072939;28;20436;-50
2021/11/06 05:01:56;;;;;;;13.80;7.60;;;10.40;99.90;;;;;;5072861;28;20971;-50
2021/11/06 05:04:22;;;;;;;15.20;5.73;;;10.00;99.90;;;;;;5073304;28;20541;-49
2021/11/06 05:06:49;;;;;;;14.20;5.57;;;10.00;99.90;;;;;;5073175;28;20489;-49
2021/11/06 05:09:16;;;;;;;10.13;5.87;;;10.20;99.90;;;;;;5072669;28;20437;-48
2021/11/06 05:11:43;;;;;;;8.87;4.70;;;10.00;99.90;;;;;;5073111;28;20540;-48
2021/11/06 05:14:11;;;;;;;11.23;5.50;;;10.50;99.90;;;;;;5073297;28;20878;-48
2021/11/06 05:16:38;;;;;;;16.90;5.97;;;10.30;99.90;;;;;;5072993;28;20438;-48
2021/11/06 05:19:05;;;;;;;8.47;5.27;;;10.40;99.90;;;;;;5072453;28;20441;-48
2021/11/06 05:21:36;;;;;;;13.77;5.40;;;10.10;99.90;;;;;;5072513;28;20476;-49
2021/11/06 05:24:04;;;;;;;10.43;4.30;;;10.40;99.90;;;;;;5072827;28;20438;-48
2021/11/06 05:26:30;;;;;;;8.80;5.87;;;9.90;99.90;;;;;;5072505;28;20936;-49
2021/11/06 05:28:57;;;;;;;10.37;3.90;;;10.00;99.90;;;;;;5072427;28;20797;-48
2021/11/06 05:31:25;;;;;;;7.57;4.40;;;10.30;99.90;;;;;;5072450;28;21000;-49
2021/11/06 05:33:52;;;;;;;12.63;4.43;;;10.50;99.90;;;;;;5072573;28;20525;-49
2021/11/06 05:36:19;;;;;;;9.47;4.30;;;9.80;99.90;;;;;;5072526;28;20434;-49
2021/11/06 05:38:45;;;;;;;7.30;4.13;;;10.10;99.90;;;;;;5071715;28;20423;-49
2021/11/06 05:41:12;;;;;;;8.10;4.07;;;9.90;99.90;;;;;;5072294;28;20429;-50
2021/11/06 05:43:39;;;;;;;12.87;5.00;;;10.50;99.90;;;;;;5072669;28;20434;-49
2021/11/06 05:46:05;;;;;;;9.17;5.00;;;10.00;99.90;;;;;;5072614;28;20404;-49
2021/11/06 05:48:33;;;;;;;7.13;3.60;;;9.80;99.90;;;;;;5072407;28;20430;-50
2021/11/06 05:51:00;;;;;;;10.37;4.20;;;10.00;99.90;;;;;;5073126;28;20459;-49
2021/11/06 05:53:26;;;;;;;9.10;4.70;;;9.90;99.90;;;;;;5072407;28;20441;-49
2021/11/06 05:55:53;;;;;;;10.60;3.80;;;10.20;99.90;;;;;;5072600;28;20441;-49
2021/11/06 05:58:20;;;;;;;8.60;4.13;;;10.00;99.90;;;;;;5071941;28;20433;-49
2021/11/06 06:00:47;;;;;;;18.33;4.93;;;10.40;99.90;;;;;;5072180;28;20445;-49
2021/11/06 06:03:13;;;;;;;8.97;4.07;;;10.10;99.90;;;;;;5072246;28;20465;-49
2021/11/06 06:05:41;;;;;;;10.93;4.43;;;9.80;99.90;;;;;;5072256;28;20401;-50
2021/11/06 06:08:08;;;;;;;16.13;5.40;;;9.90;99.90;;;;;;5071926;28;20508;-49
2021/11/06 06:10:35;;;;;;;9.10;4.43;;;9.90;99.90;;;;;;5072213;28;20481;-50
2021/11/06 06:13:02;;;;;;;7.07;4.13;;;9.90;99.90;;;;;;5072259;28;20404;-50
2021/11/06 06:15:28;;;;;;;15.30;4.30;;;10.10;99.90;;;;;;5071980;28;20430;-49
2021/11/06 06:17:55;;;;;;;7.60;4.17;;;9.90;99.90;;;;;;5071337;28;20411;-49
2021/11/06 06:20:23;;;;;;;6.33;4.00;;;10.30;99.90;;;;;;5071791;28;20485;-50
2021/11/06 06:22:51;;;;;;;18.33;4.70;;;10.00;99.90;;;;;;5071661;28;20979;-50
2021/11/06 06:25:18;;;;;;;11.07;4.77;;;10.00;99.90;;;;;;5071737;28;20434;-49
2021/11/06 06:27:44;;;;;;;8.73;4.17;;;10.00;99.90;;;;;;5071384;28;20434;-50
2021/11/06 06:30:14;;;;;;;10.00;4.30;;;10.20;99.90;;;;;;5094295;22;20461;-47
2021/11/06 06:32:41;;;;;;;7.63;4.60;;;10.10;99.90;;;;;;5031698;28;20447;-47
2021/11/06 06:35:08;;;;;;;9.87;4.60;;;10.10;99.90;;;;;;5031761;28;20439;-46
2021/11/06 06:37:36;;;;;;;9.87;4.70;;;10.40;99.90;;;;;;5031909;28;20778;-47
2021/11/06 06:40:05;;;;;;;5.53;4.03;;;9.80;99.90;;;;;;5031549;28;20440;-46
2021/11/06 06:42:32;;;;;;;10.83;6.53;;;10.10;99.90;;;;;;5031482;28;20475;-46
2021/11/06 06:44:58;;;;;;;15.10;6.37;;;10.30;99.90;;;;;;5031510;28;20962;-47
2021/11/06 06:47:25;;;;;;;9.70;6.17;;;9.80;99.90;;;;;;5031738;28;20410;-47
2021/11/06 06:49:52;;;;;;;11.30;6.20;;;10.00;99.90;;;;;;5031099;28;20401;-47
2021/11/06 06:52:18;;;;;;;10.10;5.57;;;10.00;99.90;;;;;;5030873;28;20426;-48
2021/11/06 06:54:45;;;;;;;8.50;5.73;;;10.40;99.90;;;;;;5031762;28;20439;-47
2021/11/06 06:57:13;;;;;;;8.60;5.03;;;10.20;99.90;;;;;;5031766;28;20901;-48
2021/11/06 06:59:40;;;;;;;12.13;5.27;;;10.50;99.90;;;;;;5031195;28;20415;-47
2021/11/06 07:02:07;;;;;;;8.33;5.03;;;10.50;99.90;;;;;;5031637;28;20472;-47
2021/11/06 07:04:35;;;;;;;13.00;6.73;;;10.80;99.90;;;;;;5032327;28;20415;-47
2021/11/06 07:07:02;;;;;;;6.60;4.43;;;10.60;99.90;;;;;;5031591;28;20440;-46
2021/11/06 07:09:28;;;;;;;11.07;5.50;;;10.60;99.90;;;;;;5031034;28;20408;-48
2021/11/06 07:11:55;;;;;;;12.80;5.40;;;10.60;99.90;;;;;;5031537;28;20445;-48
2021/11/06 07:14:23;;;;;;;14.53;5.00;;;10.80;99.90;;;;;;5013920;28;20450;-47
2021/11/06 07:16:52;;;;;;;9.27;4.23;;;10.60;99.90;;;;;;5031704;28;20805;-48
2021/11/06 07:19:19;;;;;;;13.97;7.03;;;11.00;99.90;;;;;;5031040;28;20435;-47
2021/11/06 07:21:46;;;;;;;7.33;5.10;;;10.90;99.90;;;;;;5031434;28;20972;-47
2021/11/06 07:24:12;;;;;;;9.50;4.67;;;10.60;99.90;;;;;;5031523;28;20506;-47
2021/11/06 07:26:39;;;;;;;7.20;4.63;;;11.00;99.90;;;;;;5031672;28;20818;-47
2021/11/06 07:29:06;;;;;;;9.60;4.83;;;10.80;99.90;;;;;;5031045;28;20871;-48
2021/11/06 07:31:34;;;;;;;8.17;5.53;;;11.20;99.90;;;;;;5031547;28;20453;-47
2021/11/06 07:34:00;;;;;;;9.63;5.37;;;11.20;99.90;;;;;;5032164;28;20886;-47
2021/11/06 07:36:27;;;;;;;11.77;5.10;;;11.50;99.90;;;;;;5031739;28;20465;-47
2021/11/06 07:38:54;;;;;;;13.30;5.87;;;10.90;99.90;;;;;;5031259;28;20407;-47
2021/11/06 07:41:24;;;;;;;13.73;5.20;;;11.20;99.90;;;;;;5031579;28;20808;-48
2021/11/06 07:43:53;;;;;;;8.20;6.17;;;11.20;99.90;;;;;;5031341;28;21021;-47
2021/11/06 07:46:19;;;;;;;9.80;7.00;;;11.40;99.90;;;;;;5031905;28;20433;-48
2021/11/06 07:48:48;;;;;;;9.17;4.60;;;11.20;99.90;;;;;;5031178;28;20451;-47
2021/11/06 07:51:15;;;;;;;8.80;5.20;;;11.40;99.90;;;;;;5013610;28;20455;-48
2021/11/06 07:53:43;;;;;;;9.10;5.30;;;11.10;99.90;;;;;;5031233;28;20497;-47
2021/11/06 07:56:09;;;;;;;10.90;4.60;;;11.30;99.90;;;;;;5031078;28;20497;-47
2021/11/06 07:58:36;;;;;;;7.83;5.77;;;10.80;99.90;;;;;;5030814;28;20509;-47
2021/11/06 08:01:03;;;;;;;6.60;5.87;;;11.30;99.90;;;;;;5031024;28;20825;-47
2021/11/06 08:03:30;;;;;;;8.00;5.70;;;11.40;99.90;;;;;;5033912;28;20465;-47
2021/11/06 08:05:58;;;;;;;8.63;5.17;;;11.30;99.90;;;;;;5017084;28;20450;-48
2021/11/06 08:08:24;;;;;;;8.20;5.43;;;11.30;99.90;;;;;;5017109;28;20434;-48
2021/11/06 08:10:51;;;;;;;11.87;5.00;;;11.30;99.90;;;;;;5034158;28;21041;-47
2021/11/06 08:13:18;;;;;;;8.97;5.40;;;11.30;99.90;;;;;;5034082;28;20440;-48
2021/11/06 08:15:45;;;;;;;14.57;7.10;;;11.40;99.90;;;;;;5034819;28;20408;-48
2021/11/06 08:18:12;;;;;;;9.67;6.30;;;11.60;99.90;;;;;;5033900;28;20419;-48
2021/11/06 08:20:39;;;;;;;8.47;5.90;;;11.30;99.90;;;;;;5037351;28;20456;-48
2021/11/06 08:23:07;;;;;;;10.33;5.60;;;11.30;99.90;;;;;;5036387;28;20494;-48
2021/11/06 08:25:34;;;;;;;8.80;6.10;;;11.30;99.90;;;;;;5034062;28;20440;-48
2021/11/06 08:28:00;;;;;;;9.93;5.97;;;11.30;99.90;;;;;;5035319;28;20480;-48
2021/11/06 08:30:27;;;;;;;13.67;6.30;;;11.40;99.90;;;;;;5034071;28;20438;-48
2021/11/06 08:32:56;;;;;;;9.30;6.20;;;11.30;99.90;;;;;;5034261;28;20978;-49
2021/11/06 08:35:25;;;;;;;7.23;5.53;;;11.40;99.90;;;;;;5033823;28;20413;-47
2021/11/06 08:37:53;;;;;;;11.43;6.00;;;11.50;99.90;;;;;;5033927;28;20448;-48
2021/11/06 08:40:21;;;;;;;9.57;6.30;;;11.60;99.90;;;;;;5015865;28;20528;-47
2021/11/06 08:42:48;;;;;;;14.23;7.30;;;11.70;99.90;;;;;;5033354;28;20871;-48
2021/11/06 08:45:15;;;;;;;8.07;6.23;;;11.40;99.90;;;;;;5033437;28;20581;-47
2021/11/06 08:47:43;;;;;;;10.07;5.77;;;11.80;99.90;;;;;;5033094;28;20783;-47
2021/11/06 08:50:12;;;;;;;7.30;6.40;;;11.90;99.90;;;;;;5015510;28;20425;-47
2021/11/06 08:52:39;;;;;;;12.03;5.30;;;11.90;99.90;;;;;;5033264;28;20446;-47
2021/11/06 08:55:07;;;;;;;12.80;6.20;;;11.80;99.90;;;;;;5033444;28;20418;-46
2021/11/06 08:57:37;;;;;;;17.73;6.80;;;11.90;99.90;;;;;;5033066;28;20412;-46
2021/11/06 09:00:06;;;;;;;13.63;5.90;;;11.70;99.90;;;;;;5033307;28;20784;-47
2021/11/06 09:02:34;;;;;;;10.67;7.20;;;12.00;99.90;;;;;;5033048;28;20455;-48
2021/11/06 09:05:01;;;;;;;19.63;13.13;;;12.00;99.90;;;;;;5033169;28;20939;-47
2021/11/06 09:07:29;;;;;;;9.70;6.80;;;12.10;99.90;;;;;;5033146;28;20897;-47
2021/11/06 09:09:56;;;;;;;14.07;6.83;;;12.00;99.90;;;;;;5014873;28;20457;-47
2021/11/06 09:12:23;;;;;;;11.27;7.30;;;12.10;99.90;;;;;;5033335;28;20826;-48
2021/11/06 09:14:51;;;;;;;7.67;5.60;;;12.10;99.90;;;;;;5031782;28;20895;-48
2021/11/06 09:17:17;;;;;;;9.40;6.67;;;12.10;99.90;;;;;;5032780;28;20449;-47
2021/11/06 09:19:44;;;;;;;11.90;6.80;;;12.10;99.90;;;;;;5032520;28;20796;-46
2021/11/06 09:22:11;;;;;;;8.23;6.80;;;12.30;99.90;;;;;;5032929;28;20464;-47
2021/11/06 09:24:38;;;;;;;11.67;6.43;;;12.40;99.90;;;;;;5032791;28;20978;-48
2021/11/06 09:27:05;;;;;;;9.77;7.53;;;12.30;99.90;;;;;;5032405;28;20440;-48
2021/11/06 09:29:32;;;;;;;8.70;6.00;;;12.40;99.90;;;;;;5032333;28;20444;-48
2021/11/06 09:32:00;;;;;;;7.27;5.83;;;12.20;99.90;;;;;;5032244;28;20973;-48
2021/11/06 09:34:26;;;;;;;10.57;6.87;;;12.30;99.90;;;;;;5033863;28;20442;-48
2021/11/06 09:36:53;;;;;;;11.07;7.20;;;12.30;99.90;;;;;;5034446;28;20464;-50
2021/11/06 09:39:20;;;;;;;9.93;6.80;;;12.40;99.90;;;;;;5034699;28;20518;-49
2021/11/06 09:41:46;;;;;;;7.03;5.70;;;12.50;99.90;;;;;;5034743;28;20978;-50
2021/11/06 09:44:13;;;;;;;7.40;6.60;;;12.30;99.90;;;;;;5033043;28;20573;-47
2021/11/06 09:46:39;;;;;;;9.10;6.47;;;12.50;99.90;;;;;;5032417;28;20434;-48
2021/11/06 09:49:07;;;;;;;9.27;6.63;;;12.70;99.90;;;;;;5014443;28;20474;-48
2021/11/06 09:51:34;;;;;;;12.00;6.70;;;12.50;99.90;;;;;;5032479;28;20463;-47
2021/11/06 09:54:05;;;;;;;8.20;6.30;;;12.50;99.90;;;;;;5032521;28;20531;-47
2021/11/06 09:56:32;;;;;;;10.17;6.90;;;12.50;99.90;;;;;;5032155;28;20442;-48
2021/11/06 09:59:01;;;;;;;9.30;7.00;;;12.60;99.90;;;;;;5032581;28;20445;-47
2021/11/06 10:01:28;;;;;;;7.53;5.97;;;12.60;99.90;;;;;;5032863;28;20869;-47
2021/11/06 10:03:55;;;;;;;11.83;8.60;;;12.70;99.90;;;;;;5032245;28;20941;-47
2021/11/06 10:06:25;;;;;;;9.93;6.73;;;12.90;99.90;;;;;;5032173;28;20437;-49
2021/11/06 10:08:53;;;;;;;7.87;5.53;;;12.80;99.90;;;;;;5031622;28;20776;-48
2021/11/06 10:11:22;;;;;;;9.60;7.00;;;12.40;99.90;;;;;;5031636;28;20458;-48
2021/11/06 10:13:55;;;;;;;8.80;5.90;;;12.60;99.90;;;;;;5014423;28;20503;-48
2021/11/06 10:16:30;;;;;;;10.33;6.20;;;12.90;99.90;;;;;;5031818;28;20522;-48
2021/11/06 10:19:05;;;;;;;10.17;6.27;;;13.00;99.90;;;;;;5031765;28;20441;-49
2021/11/06 10:21:33;;;;;;;7.87;5.87;;;13.00;99.90;;;;;;5031090;28;20464;-48
2021/11/06 10:23:59;;;;;;;13.23;7.00;;;13.00;99.90;;;;;;5031499;28;20491;-47
2021/11/06 10:26:27;;;;;;;10.33;5.30;;;13.00;99.90;;;;;;5031788;28;20440;-47
2021/11/06 10:29:03;;;;;;;9.50;5.13;;;13.10;99.90;;;;;;5031173;28;20806;-48
2021/11/06 10:31:29;;;;;;;7.83;6.87;;;13.30;99.90;;;;;;5031274;28;20484;-48
2021/11/06 10:33:56;;;;;;;11.60;5.87;;;13.20;99.90;;;;;;5031678;28;20442;-48
2021/11/06 10:36:26;;;;;;;7.20;5.03;;;13.20;99.90;;;;;;5031344;28;20434;-48
2021/11/06 10:39:05;;;;;;;7.90;6.10;;;13.30;99.90;;;;;;5031088;28;20438;-48
2021/11/06 10:41:34;;;;;;;5.70;4.87;;;13.30;99.90;;;;;;5030951;28;20444;-49
2021/11/06 10:44:01;;;;;;;10.73;6.00;;;13.20;99.90;;;;;;5031250;28;20516;-49
2021/11/06 10:46:30;;;;;;;7.03;5.47;;;13.20;99.90;;;;;;5031639;28;20434;-49
2021/11/06 10:48:58;;;;;;;7.23;5.30;;;13.30;99.90;;;;;;5030809;28;20892;-49
2021/11/06 10:51:25;;;;;;;6.87;4.73;;;13.10;99.90;;;;;;5031354;28;20450;-47
2021/11/06 10:53:53;;;;;;;9.73;5.50;;;13.30;99.90;;;;;;5031491;28;20440;-50
2021/11/06 10:56:34;;;;;;;16.40;6.63;;;13.60;99.90;;;;;;5015997;28;20450;-48
2021/11/06 10:59:12;;;;;;;7.63;4.87;;;13.50;99.90;;;;;;5030910;28;20907;-47
2021/11/06 11:01:41;;;;;;;10.00;6.50;;;13.60;99.90;;;;;;5012875;28;21020;-47
2021/11/06 11:04:09;;;;;;;7.57;4.33;;;13.70;99.90;;;;;;5031243;28;20608;-48
2021/11/06 11:06:44;;;;;;;10.80;5.33;;;13.30;99.90;;;;;;5031360;28;20854;-48
2021/11/06 11:09:13;;;;;;;7.67;4.60;;;13.70;99.90;;;;;;5030562;28;20946;-47
2021/11/06 11:11:42;;;;;;;9.13;5.93;;;13.80;99.90;;;;;;5030634;28;20459;-48
2021/11/06 11:14:10;;;;;;;8.00;5.03;;;13.90;99.90;;;;;;5030790;28;20438;-48
2021/11/06 11:16:40;;;;;;;13.93;6.30;;;13.70;99.90;;;;;;5012697;28;20491;-48
2021/11/06 11:19:10;;;;;;;13.10;6.00;;;13.70;99.90;;;;;;5030726;28;20868;-48
2021/11/06 11:21:41;;;;;;;6.33;5.10;;;13.60;99.90;;;;;;5030523;28;20512;-48
2021/11/06 11:24:10;;;;;;;5.90;4.30;;;13.60;99.90;;;;;;5030388;28;21008;-48
2021/11/06 11:26:39;;;;;;;7.30;4.60;;;13.70;99.90;;;;;;5031044;28;20430;-48
2021/11/06 11:29:09;;;;;;;6.70;4.60;;;13.70;99.90;;;;;;5030642;28;20848;-47
2021/11/06 11:31:36;;;;;;;7.30;4.53;;;13.20;99.90;;;;;;5030625;28;20470;-48
2021/11/06 11:34:07;;;;;;;5.60;4.13;;;13.60;99.90;;;;;;5030362;28;20450;-48
2021/11/06 11:36:35;;;;;;;6.97;4.60;;;13.90;99.90;;;;;;5030998;28;20466;-48
2021/11/06 11:39:02;;;;;;;8.10;4.67;;;13.60;99.90;;;;;;5034283;28;20435;-49
2021/11/06 11:42:06;;;;;;;6.10;5.07;;;13.60;99.90;;;;;;5034340;28;20450;-49
2021/11/06 11:45:06;;;;;;;7.10;4.63;;;13.60;99.90;;;;;;5034153;28;20494;-48
2021/11/06 11:47:39;;;;;;;10.90;5.80;;;13.60;99.90;;;;;;5033646;28;20478;-48
2021/11/06 11:50:12;;;;;;;7.73;4.67;;;13.60;99.90;;;;;;5034160;28;20876;-48
2021/11/06 11:52:42;;;;;;;11.70;5.80;;;13.40;99.90;;;;;;5034128;28;20441;-49
2021/11/06 11:55:12;;;;;;;6.40;4.87;;;13.70;99.90;;;;;;5034032;28;20436;-49
2021/11/06 11:57:40;;;;;;;14.03;5.80;;;13.70;99.90;;;;;;5033555;28;20442;-49
2021/11/06 12:00:39;;;;;;;10.77;4.90;;;13.80;99.90;;;;;;5034254;28;20495;-48
2021/11/06 12:03:10;;;;;;;6.50;4.70;;;13.90;99.90;;;;;;5033521;28;20784;-48
2021/11/06 12:05:39;;;;;;;6.47;4.10;;;13.70;99.90;;;;;;5016634;28;20439;-49
2021/11/06 12:08:29;;;;;;;5.67;4.03;;;13.70;99.90;;;;;;5033566;28;20432;-49
2021/11/06 12:10:58;;;;;;;7.83;5.73;;;13.70;99.90;;;;;;5034711;28;20455;-48
2021/11/06 12:13:35;;;;;;;6.90;4.70;;;13.70;99.90;;;;;;5037200;28;20450;-49
2021/11/06 12:16:04;;;;;;;10.17;3.97;;;13.60;99.90;;;;;;5034415;28;20476;-48
2021/11/06 12:18:50;;;;;;;11.40;4.40;;;13.60;99.90;;;;;;5033719;28;20398;-48
2021/11/06 12:21:35;;;;;;;8.53;4.97;;;13.70;99.90;;;;;;5015583;28;20764;-47
2021/11/06 12:24:29;;;;;;;5.57;4.20;;;13.70;99.90;;;;;;5033844;28;20489;-47
2021/11/06 12:27:02;;;;;;;6.53;4.47;;;13.70;99.90;;;;;;5033501;28;20448;-49
2021/11/06 12:29:38;;;;;;;9.40;4.43;;;13.60;99.90;;;;;;5033423;28;20514;-47
2021/11/06 12:32:14;;;;;;;8.30;5.03;;;13.40;99.90;;;;;;5033951;28;20458;-50
2021/11/06 12:34:46;;;;;;;8.37;3.80;;;13.70;99.90;;;;;;5033762;28;20445;-51
2021/11/06 12:37:33;;;;;;;9.37;5.23;;;13.70;99.90;;;;;;5033410;28;20959;-51
2021/11/06 12:40:04;;;;;;;6.20;4.37;;;13.70;99.90;;;;;;5033595;28;20785;-50
2021/11/06 12:42:33;;;;;;;5.47;4.53;;;13.10;99.90;;;;;;5032083;28;20833;-49
2021/11/06 12:45:03;;;;;;;8.97;4.90;;;13.70;99.90;;;;;;5033751;28;20566;-50
2021/11/06 12:47:32;;;;;;;6.23;4.70;;;13.70;99.90;;;;;;5033427;28;20423;-50